createdAt,value
2018-12-26T00:00:46.962Z,3.00
2018-12-26T00:03:15.295Z,3.33
2018-12-26T00:05:43.736Z,2.90
2018-12-26T00:08:13.568Z,2.97
2018-12-26T00:10:41.271Z,3.13
2018-12-26T00:13:10.123Z,3.07
2018-12-26T00:15:38.470Z,2.60
2018-12-26T00:18:06.950Z,3.93
2018-12-26T00:20:35.569Z,2.90
2018-12-26T00:23:03.979Z,2.10
2018-12-26T00:25:32.315Z,2.43
2018-12-26T00:28:00.644Z,2.67
2018-12-26T00:30:29.081Z,2.50
2018-12-26T00:32:57.582Z,2.43
2018-12-26T00:35:25.907Z,2.50
2018-12-26T00:37:54.257Z,2.13
2018-12-26T00:40:22.579Z,2.50
2018-12-26T00:42:51.049Z,2.40
2018-12-26T00:45:19.627Z,2.90
2018-12-26T00:47:47.960Z,2.60
2018-12-26T00:50:16.281Z,3.27
2018-12-26T00:52:44.628Z,2.87
2018-12-26T00:55:13.063Z,2.77
2018-12-26T00:57:41.636Z,2.23
2018-12-26T01:00:09.954Z,3.07
2018-12-26T01:02:38.278Z,1.93
2018-12-26T01:05:06.632Z,2.90
2018-12-26T01:07:34.946Z,2.70
2018-12-26T01:10:04.065Z,2.53
2018-12-26T01:12:32.375Z,2.57
2018-12-26T01:15:00.697Z,2.17
2018-12-26T01:17:29.022Z,2.20
2018-12-26T01:19:57.365Z,2.60
2018-12-26T01:22:25.680Z,2.50
2018-12-26T01:24:54.005Z,2.13
2018-12-26T01:27:23.267Z,1.50
2018-12-26T01:29:51.583Z,1.87
2018-12-26T01:32:19.913Z,2.53
2018-12-26T01:34:48.249Z,2.27
2018-12-26T01:37:16.585Z,2.20
2018-12-26T01:39:44.912Z,2.67
2018-12-26T01:42:13.228Z,2.00
2018-12-26T01:44:41.541Z,1.50
2018-12-26T01:47:09.865Z,1.80
2018-12-26T01:49:38.189Z,2.37
2018-12-26T01:52:06.739Z,2.00
2018-12-26T01:54:34.845Z,2.30
2018-12-26T01:57:03.180Z,2.43
2018-12-26T01:59:31.506Z,1.60
2018-12-26T02:01:59.857Z,2.37
2018-12-26T02:04:28.175Z,2.33
2018-12-26T02:06:56.518Z,2.60
2018-12-26T02:09:24.826Z,1.70
2018-12-26T02:11:53.161Z,2.20
2018-12-26T02:14:21.488Z,1.53
2018-12-26T02:16:49.815Z,1.77
2018-12-26T02:19:19.016Z,2.20
2018-12-26T02:21:47.344Z,2.10
2018-12-26T02:24:15.672Z,1.97
2018-12-26T02:26:44.004Z,1.90
2018-12-26T02:29:12.331Z,2.23
2018-12-26T02:31:40.654Z,2.13
2018-12-26T02:34:08.973Z,1.50
2018-12-26T02:36:37.599Z,2.27
2018-12-26T02:39:05.922Z,2.00
2018-12-26T02:41:34.236Z,2.67
2018-12-26T02:44:02.568Z,2.27
2018-12-26T02:46:31.114Z,2.37
2018-12-26T02:48:59.226Z,2.53
2018-12-26T02:51:27.544Z,2.50
2018-12-26T02:53:55.876Z,2.23
2018-12-26T02:56:24.204Z,2.10
2018-12-26T02:58:52.516Z,2.30
2018-12-26T03:01:20.839Z,2.33
2018-12-26T03:03:49.172Z,2.63
2018-12-26T03:06:17.492Z,2.47
2018-12-26T03:08:45.815Z,1.80
2018-12-26T03:11:14.143Z,2.00
2018-12-26T03:13:42.469Z,2.10
2018-12-26T03:16:11.030Z,2.00
2018-12-26T03:18:39.128Z,1.53
2018-12-26T03:21:07.438Z,1.77
2018-12-26T03:23:35.771Z,2.37
2018-12-26T03:26:04.105Z,2.37
2018-12-26T03:28:32.416Z,1.97
2018-12-26T03:31:00.749Z,2.00
2018-12-26T03:33:29.074Z,2.23
2018-12-26T03:35:57.404Z,2.20
2018-12-26T03:38:25.744Z,2.30
2018-12-26T03:40:54.055Z,1.93
2018-12-26T03:43:22.375Z,1.83
2018-12-26T03:45:50.688Z,1.50
2018-12-26T03:48:19.012Z,1.97
2018-12-26T03:50:47.336Z,2.27
2018-12-26T03:53:15.668Z,1.80
2018-12-26T03:55:44.006Z,2.13
2018-12-26T03:58:12.347Z,2.20
2018-12-26T04:00:40.661Z,1.80
2018-12-26T04:03:08.989Z,2.43
2018-12-26T04:05:37.313Z,1.90
2018-12-26T04:08:05.655Z,2.20
2018-12-26T04:10:33.974Z,1.87
2018-12-26T04:13:02.292Z,1.90
2018-12-26T04:15:30.604Z,2.10
2018-12-26T04:17:58.936Z,2.53
2018-12-26T04:20:27.267Z,2.70
2018-12-26T04:22:55.579Z,1.70
2018-12-26T04:25:23.912Z,2.00
2018-12-26T04:27:52.250Z,1.93
2018-12-26T04:30:20.561Z,2.07
2018-12-26T04:32:49.187Z,2.60
2018-12-26T04:35:17.518Z,2.67
2018-12-26T04:37:46.168Z,1.90
2018-12-26T04:40:14.493Z,1.60
2018-12-26T04:42:43.242Z,1.90
2018-12-26T04:45:11.568Z,1.73
2018-12-26T04:47:39.886Z,1.90
2018-12-26T04:50:08.210Z,2.23
2018-12-26T04:52:36.791Z,2.10
2018-12-26T04:55:05.010Z,2.27
2018-12-26T04:57:33.322Z,1.70
2018-12-26T05:00:01.674Z,2.30
2018-12-26T05:02:29.991Z,2.00
2018-12-26T05:04:58.317Z,2.27
2018-12-26T05:07:26.641Z,2.50
2018-12-26T05:09:54.956Z,2.07
2018-12-26T05:12:23.283Z,2.73
2018-12-26T05:14:51.599Z,2.00
2018-12-26T05:17:19.922Z,2.00
2018-12-26T05:19:48.242Z,2.43
2018-12-26T05:22:16.574Z,2.23
2018-12-26T05:24:44.906Z,2.27
2018-12-26T05:27:13.226Z,2.37
2018-12-26T05:29:41.549Z,1.80
2018-12-26T05:32:09.890Z,1.50
2018-12-26T05:34:38.222Z,1.80
2018-12-26T05:37:06.536Z,2.07
2018-12-26T05:39:34.862Z,2.53
2018-12-26T05:42:03.185Z,2.17
2018-12-26T05:44:31.511Z,2.87
2018-12-26T05:46:59.838Z,2.50
2018-12-26T05:49:28.152Z,3.47
2018-12-26T05:51:56.481Z,2.70
2018-12-26T05:54:24.824Z,2.57
2018-12-26T05:56:53.152Z,3.40
2018-12-26T05:59:21.482Z,2.13
2018-12-26T06:01:49.805Z,3.10
2018-12-26T06:04:18.128Z,3.23
2018-12-26T06:06:46.467Z,7.17
2018-12-26T06:09:14.786Z,9.00
2018-12-26T06:11:43.129Z,3.23
2018-12-26T06:14:11.491Z,2.47
2018-12-26T06:16:39.814Z,2.40
2018-12-26T06:19:08.138Z,2.37
2018-12-26T06:21:36.472Z,2.40
2018-12-26T06:24:04.848Z,2.20
2018-12-26T06:26:33.199Z,2.20
2018-12-26T06:29:01.476Z,1.90
2018-12-26T06:31:30.226Z,1.80
2018-12-26T06:33:58.551Z,2.57
2018-12-26T06:36:26.885Z,2.63
2018-12-26T06:38:55.210Z,5.93
2018-12-26T06:41:23.527Z,6.17
2018-12-26T06:43:51.855Z,3.17
2018-12-26T06:46:20.236Z,2.60
2018-12-26T06:48:48.570Z,2.40
2018-12-26T06:51:16.888Z,2.30
2018-12-26T06:53:45.214Z,2.67
2018-12-26T06:56:13.539Z,3.10
2018-12-26T06:58:41.864Z,2.77
2018-12-26T07:01:10.195Z,2.50
2018-12-26T07:03:39.091Z,2.60
2018-12-26T07:06:07.407Z,3.20
2018-12-26T07:08:35.713Z,2.40
2018-12-26T07:11:04.125Z,3.90
2018-12-26T07:13:32.449Z,2.40
2018-12-26T07:16:00.768Z,3.53
2018-12-26T07:18:29.085Z,2.90
2018-12-26T07:20:57.408Z,6.13
2018-12-26T07:23:25.726Z,2.33
2018-12-26T07:25:54.046Z,2.53
2018-12-26T07:28:22.367Z,3.00
2018-12-26T07:30:50.722Z,3.00
2018-12-26T07:33:19.046Z,6.67
2018-12-26T07:35:47.384Z,8.07
2018-12-26T07:38:15.702Z,3.50
2018-12-26T07:40:44.034Z,2.70
2018-12-26T07:43:12.370Z,3.00
2018-12-26T07:45:40.706Z,2.70
2018-12-26T07:48:09.055Z,11.50
2018-12-26T07:50:37.377Z,6.97
2018-12-26T07:53:05.711Z,7.07
2018-12-26T07:55:34.255Z,3.70
2018-12-26T07:58:02.390Z,8.10
2018-12-26T08:00:31.380Z,2.43
2018-12-26T08:02:59.700Z,3.50
2018-12-26T08:05:28.053Z,2.50
2018-12-26T08:07:56.383Z,3.73
2018-12-26T08:10:24.701Z,4.77
2018-12-26T08:12:53.554Z,3.83
2018-12-26T08:15:21.667Z,5.10
2018-12-26T08:17:49.999Z,4.60
2018-12-26T08:20:18.678Z,5.80
2018-12-26T08:22:47.304Z,4.00
2018-12-26T08:25:15.619Z,5.00
2018-12-26T08:27:43.958Z,4.30
2018-12-26T08:30:12.301Z,7.83
2018-12-26T08:32:40.875Z,15.30
2018-12-26T08:35:09.365Z,7.47
2018-12-26T08:37:37.654Z,6.80
2018-12-26T08:40:05.992Z,3.83
2018-12-26T08:42:34.313Z,4.03
2018-12-26T08:45:03.659Z,5.03
2018-12-26T08:47:32.420Z,5.50
2018-12-26T08:50:02.037Z,7.23
2018-12-26T08:52:30.503Z,4.13
2018-12-26T08:54:59.611Z,4.50
2018-12-26T08:57:27.937Z,4.73
2018-12-26T08:59:56.306Z,4.63
2018-12-26T09:02:25.624Z,4.97
2018-12-26T09:04:53.960Z,3.60
2018-12-26T09:07:22.285Z,4.40
2018-12-26T09:09:50.609Z,3.83
2018-12-26T09:12:18.969Z,4.27
2018-12-26T09:14:47.312Z,9.93
2018-12-26T09:17:15.639Z,10.33
2018-12-26T09:19:44.010Z,6.90
2018-12-26T09:22:12.331Z,4.03
2018-12-26T09:24:40.666Z,5.87
2018-12-26T09:27:08.990Z,6.90
2018-12-26T09:29:53.166Z,6.83
2018-12-26T09:32:21.337Z,4.03
2018-12-26T09:34:49.655Z,8.20
2018-12-26T09:37:17.982Z,4.13
2018-12-26T09:39:46.308Z,6.20
2018-12-26T09:42:14.617Z,4.80
2018-12-26T09:44:42.963Z,4.80
2018-12-26T09:47:11.528Z,4.33
2018-12-26T09:49:39.837Z,6.07
2018-12-26T09:52:08.312Z,6.50
2018-12-26T09:54:36.553Z,4.27
2018-12-26T09:57:04.878Z,3.97
2018-12-26T09:59:33.204Z,5.97
2018-12-26T10:02:01.535Z,6.10
2018-12-26T10:04:29.874Z,4.97
2018-12-26T10:06:58.194Z,5.03
2018-12-26T10:09:26.536Z,6.27
2018-12-26T10:11:56.568Z,4.60
2018-12-26T10:14:24.887Z,3.53
2018-12-26T10:16:53.215Z,4.87
2018-12-26T10:19:21.542Z,4.63
2018-12-26T10:21:49.873Z,5.13
2018-12-26T10:24:18.203Z,5.90
2018-12-26T10:26:47.035Z,5.57
2018-12-26T10:29:15.369Z,14.33
2018-12-26T10:31:43.686Z,7.13
2018-12-26T10:34:12.991Z,4.87
2018-12-26T10:36:41.592Z,5.27
2018-12-26T10:39:09.928Z,7.13
2018-12-26T10:41:38.272Z,9.87
2018-12-26T10:44:06.602Z,9.73
2018-12-26T10:46:34.943Z,6.93
2018-12-26T10:49:03.279Z,5.67
2018-12-26T10:51:31.633Z,4.93
2018-12-26T10:53:59.937Z,5.83
2018-12-26T10:56:28.260Z,5.80
2018-12-26T10:58:56.593Z,5.47
2018-12-26T11:01:26.053Z,3.70
2018-12-26T11:03:55.858Z,5.53
2018-12-26T11:06:24.214Z,4.33
2018-12-26T11:08:52.598Z,5.73
2018-12-26T11:11:21.720Z,6.00
2018-12-26T11:13:50.075Z,8.40
2018-12-26T11:16:18.397Z,7.83
2018-12-26T11:18:46.783Z,6.30
2018-12-26T11:21:15.114Z,6.83
2018-12-26T11:23:44.482Z,7.03
2018-12-26T11:26:12.842Z,6.33
2018-12-26T11:28:41.171Z,6.90
2018-12-26T11:31:09.513Z,5.80
2018-12-26T11:33:37.958Z,7.20
2018-12-26T11:36:06.283Z,5.43
2018-12-26T11:38:34.613Z,5.07
2018-12-26T11:41:05.115Z,5.13
2018-12-26T11:43:31.629Z,5.70
2018-12-26T11:45:59.949Z,4.60
2018-12-26T11:48:28.275Z,8.23
2018-12-26T11:50:56.616Z,4.17
2018-12-26T11:53:24.949Z,5.43
2018-12-26T11:55:53.286Z,4.30
2018-12-26T11:58:21.665Z,4.10
2018-12-26T12:00:49.991Z,6.43
2018-12-26T12:03:18.355Z,8.73
2018-12-26T12:05:46.702Z,5.47
2018-12-26T12:08:15.039Z,7.67
2018-12-26T12:10:43.379Z,10.63
2018-12-26T12:13:11.703Z,12.83
2018-12-26T12:15:40.032Z,9.80
2018-12-26T12:18:08.446Z,8.87
2018-12-26T12:20:36.770Z,9.87
2018-12-26T12:23:05.110Z,9.20
2018-12-26T12:25:33.435Z,10.53
2018-12-26T12:28:01.764Z,10.77
2018-12-26T12:30:30.092Z,20.10
2018-12-26T12:32:58.479Z,12.33
2018-12-26T12:35:26.838Z,11.30
2018-12-26T12:37:55.491Z,13.40
2018-12-26T12:40:23.810Z,7.73
2018-12-26T12:42:52.144Z,9.37
2018-12-26T12:45:20.968Z,8.73
2018-12-26T12:47:49.608Z,8.37
2018-12-26T12:50:17.969Z,17.20
2018-12-26T12:52:46.302Z,22.47
2018-12-26T12:55:14.785Z,19.20
2018-12-26T12:57:43.133Z,15.73
2018-12-26T13:00:12.602Z,13.43
2018-12-26T13:02:40.986Z,8.43
2018-12-26T13:05:09.325Z,11.07
2018-12-26T13:07:37.638Z,7.77
2018-12-26T13:10:05.964Z,6.83
2018-12-26T13:12:34.627Z,8.27
2018-12-26T13:15:02.998Z,12.03
2018-12-26T13:17:31.462Z,14.47
2018-12-26T13:19:59.786Z,9.67
2018-12-26T13:22:28.137Z,12.40
2018-12-26T13:24:56.476Z,8.67
2018-12-26T13:27:24.813Z,11.33
2018-12-26T13:29:53.910Z,14.20
2018-12-26T13:32:21.676Z,9.97
2018-12-26T13:34:50.078Z,9.07
2018-12-26T13:37:18.472Z,5.57
2018-12-26T13:39:47.128Z,9.77
2018-12-26T13:42:15.461Z,10.63
2018-12-26T13:44:43.802Z,8.10
2018-12-26T13:47:12.124Z,6.97
2018-12-26T13:49:40.493Z,6.23
2018-12-26T13:52:08.853Z,7.57
2018-12-26T13:54:37.187Z,8.33
2018-12-26T13:57:05.555Z,9.60
2018-12-26T13:59:33.887Z,6.53
2018-12-26T14:02:02.223Z,6.47
2018-12-26T14:04:30.547Z,19.03
2018-12-26T14:06:58.872Z,8.00
2018-12-26T14:09:27.437Z,8.87
2018-12-26T14:11:55.595Z,7.20
2018-12-26T14:14:23.918Z,5.23
2018-12-26T14:16:52.256Z,5.10
2018-12-26T14:19:20.605Z,4.70
2018-12-26T14:21:48.948Z,4.50
2018-12-26T14:24:17.293Z,5.27
2018-12-26T14:26:45.617Z,5.40
2018-12-26T14:29:13.982Z,4.17
2018-12-26T14:31:42.351Z,2.83
2018-12-26T14:34:11.004Z,3.80
2018-12-26T14:36:39.338Z,4.10
2018-12-26T14:39:08.097Z,8.00
2018-12-26T14:41:36.462Z,6.67
2018-12-26T14:44:04.591Z,8.00
2018-12-26T14:46:33.009Z,7.10
2018-12-26T14:49:01.304Z,4.37
2018-12-26T14:51:29.618Z,6.70
2018-12-26T14:53:58.008Z,8.70
2018-12-26T14:56:26.349Z,17.43
2018-12-26T14:58:54.709Z,7.97
2018-12-26T15:01:23.137Z,7.00
2018-12-26T15:03:52.399Z,8.23
2018-12-26T15:06:20.837Z,8.60
2018-12-26T15:08:49.152Z,7.23
2018-12-26T15:11:17.472Z,12.47
2018-12-26T15:13:45.836Z,11.43
2018-12-26T15:16:14.151Z,9.70
2018-12-26T15:18:42.896Z,10.37
2018-12-26T15:21:11.211Z,9.87
2018-12-26T15:23:39.543Z,8.67
2018-12-26T15:26:07.871Z,10.23
2018-12-26T15:28:36.314Z,9.10
2018-12-26T15:31:04.641Z,7.63
2018-12-26T15:33:33.010Z,9.13
2018-12-26T15:36:01.359Z,7.83
2018-12-26T15:38:29.689Z,7.00
2018-12-26T15:40:58.003Z,6.03
2018-12-26T15:43:26.325Z,6.43
2018-12-26T15:45:54.662Z,8.30
2018-12-26T15:48:23.023Z,10.70
2018-12-26T15:50:51.371Z,6.60
2018-12-26T15:53:19.715Z,10.10
2018-12-26T15:55:48.122Z,6.90
2018-12-26T15:58:16.442Z,6.33
2018-12-26T16:00:44.782Z,5.03
2018-12-26T16:03:13.128Z,7.03
2018-12-26T16:05:41.622Z,8.00
2018-12-26T16:08:09.965Z,6.30
2018-12-26T16:10:38.300Z,9.73
2018-12-26T16:13:06.659Z,8.80
2018-12-26T16:15:34.995Z,7.30
2018-12-26T16:18:03.349Z,9.37
2018-12-26T16:20:31.701Z,9.13
2018-12-26T16:23:00.100Z,13.27
2018-12-26T16:25:28.417Z,9.50
2018-12-26T16:27:56.782Z,6.50
2018-12-26T16:30:26.072Z,7.07
2018-12-26T16:32:54.422Z,11.47
2018-12-26T16:35:22.780Z,7.47
2018-12-26T16:37:51.120Z,9.63
2018-12-26T16:40:19.443Z,9.33
2018-12-26T16:42:47.808Z,7.20
2018-12-26T16:45:16.141Z,7.13
2018-12-26T16:47:44.461Z,6.87
2018-12-26T16:50:13.027Z,5.33
2018-12-26T16:52:41.142Z,7.33
2018-12-26T16:55:10.460Z,4.63
2018-12-26T16:57:38.829Z,6.53
2018-12-26T17:00:07.552Z,6.03
2018-12-26T17:02:36.115Z,6.67
2018-12-26T17:05:04.240Z,8.13
2018-12-26T17:07:32.614Z,5.80
2018-12-26T17:10:00.948Z,6.20
2018-12-26T17:12:29.288Z,4.67
2018-12-26T17:14:57.835Z,4.77
2018-12-26T17:17:26.182Z,6.37
2018-12-26T17:19:54.532Z,6.73
2018-12-26T17:22:22.851Z,7.10
2018-12-26T17:24:51.445Z,8.33
2018-12-26T17:27:19.913Z,8.03
2018-12-26T17:29:48.246Z,7.37
2018-12-26T17:32:16.593Z,7.77
2018-12-26T17:34:44.942Z,8.30
2018-12-26T17:37:13.437Z,6.03
2018-12-26T17:39:41.841Z,6.00
2018-12-26T17:42:10.084Z,5.70
2018-12-26T17:44:38.676Z,6.80
2018-12-26T17:47:07.649Z,5.90
2018-12-26T17:49:35.984Z,7.40
2018-12-26T17:52:05.832Z,5.90
2018-12-26T17:54:32.643Z,14.97
2018-12-26T17:57:00.983Z,12.83
2018-12-26T17:59:29.329Z,7.63
2018-12-26T18:01:57.659Z,7.30
2018-12-26T18:04:26.332Z,9.17
2018-12-26T18:06:55.394Z,7.07
2018-12-26T18:09:23.722Z,11.57
2018-12-26T18:11:52.074Z,6.43
2018-12-26T18:14:20.422Z,7.33
2018-12-26T18:16:48.748Z,6.20
2018-12-26T18:19:17.119Z,6.27
2018-12-26T18:21:45.466Z,6.50
2018-12-26T18:24:13.842Z,5.83
2018-12-26T18:26:42.466Z,9.33
2018-12-26T18:29:12.342Z,8.40
2018-12-26T18:31:40.907Z,6.10
2018-12-26T18:34:09.016Z,8.83
2018-12-26T18:36:37.659Z,8.60
2018-12-26T18:39:05.696Z,9.10
2018-12-26T18:41:34.049Z,9.27
2018-12-26T18:44:02.379Z,8.83
2018-12-26T18:46:30.709Z,7.67
2018-12-26T18:48:59.053Z,6.03
2018-12-26T18:51:27.375Z,6.03
2018-12-26T18:53:55.729Z,6.63
2018-12-26T18:56:24.076Z,7.07
2018-12-26T18:58:52.417Z,7.60
2018-12-26T19:01:20.963Z,6.43
2018-12-26T19:03:49.428Z,11.40
2018-12-26T19:06:17.802Z,12.23
2018-12-26T19:08:46.367Z,8.00
2018-12-26T19:11:16.681Z,10.37
2018-12-26T19:13:45.037Z,21.13
2018-12-26T19:16:13.361Z,31.27
2018-12-26T19:18:41.702Z,19.07
2018-12-26T19:21:10.038Z,53.33
2018-12-26T19:23:38.406Z,11.50
2018-12-26T19:26:06.766Z,7.50
2018-12-26T19:28:35.106Z,20.70
2018-12-26T19:31:03.452Z,15.30
2018-12-26T19:33:32.018Z,9.80
2018-12-26T19:36:00.135Z,6.53
2018-12-26T19:38:28.484Z,10.30
2018-12-26T19:40:57.560Z,9.57
2018-12-26T19:43:25.916Z,6.77
2018-12-26T19:45:54.247Z,6.70
2018-12-26T19:48:22.584Z,8.43
2018-12-26T19:50:52.637Z,7.23
2018-12-26T19:53:19.275Z,8.07
2018-12-26T19:55:48.490Z,6.43
2018-12-26T19:58:16.829Z,6.67
2018-12-26T20:00:45.187Z,6.43
2018-12-26T20:03:13.545Z,29.47
2018-12-26T20:05:41.891Z,7.03
2018-12-26T20:08:10.470Z,7.37
2018-12-26T20:10:38.836Z,7.20
2018-12-26T20:13:07.188Z,15.53
2018-12-26T20:15:35.565Z,11.50
2018-12-26T20:18:04.416Z,8.10
2018-12-26T20:20:33.850Z,6.17
2018-12-26T20:23:02.300Z,6.27
2018-12-26T20:25:30.631Z,5.83
2018-12-26T20:27:58.976Z,5.37
2018-12-26T20:30:27.321Z,5.57
2018-12-26T20:32:55.661Z,4.73
2018-12-26T20:35:24.015Z,4.03
2018-12-26T20:37:52.356Z,6.97
2018-12-26T20:40:21.597Z,4.77
2018-12-26T20:42:49.919Z,6.10
2018-12-26T20:45:18.256Z,5.50
2018-12-26T20:47:46.810Z,6.20
2018-12-26T20:50:15.135Z,5.77
2018-12-26T20:52:43.468Z,5.90
2018-12-26T20:55:11.799Z,4.77
2018-12-26T20:57:40.145Z,4.40
2018-12-26T21:00:08.707Z,4.57
2018-12-26T21:02:36.812Z,4.90
2018-12-26T21:05:05.152Z,4.77
2018-12-26T21:07:33.477Z,26.87
2018-12-26T21:10:01.840Z,5.50
2018-12-26T21:12:32.375Z,4.33
2018-12-26T21:15:00.715Z,4.83
2018-12-26T21:17:29.081Z,4.60
2018-12-26T21:19:57.428Z,4.93
2018-12-26T21:22:25.813Z,4.47
2018-12-26T21:24:54.172Z,4.03
2018-12-26T21:27:22.496Z,5.70
2018-12-26T21:29:50.899Z,5.30
2018-12-26T21:32:20.172Z,4.90
2018-12-26T21:34:48.519Z,5.80
2018-12-26T21:37:16.900Z,5.33
2018-12-26T21:39:45.200Z,4.50
2018-12-26T21:42:13.531Z,4.97
2018-12-26T21:44:41.860Z,4.70
2018-12-26T21:47:10.423Z,5.97
2018-12-26T21:49:39.318Z,3.77
2018-12-26T21:52:07.625Z,3.70
2018-12-26T21:54:35.944Z,4.47
2018-12-26T21:57:05.096Z,3.77
2018-12-26T21:59:33.611Z,4.40
2018-12-26T22:02:01.905Z,4.10
2018-12-26T22:04:30.236Z,4.53
2018-12-26T22:06:58.676Z,4.07
2018-12-26T22:09:27.297Z,3.43
2018-12-26T22:11:55.707Z,3.50
2018-12-26T22:14:24.019Z,3.43
2018-12-26T22:16:52.347Z,4.73
2018-12-26T22:19:21.291Z,3.70
2018-12-26T22:21:50.599Z,4.53
2018-12-26T22:24:18.016Z,4.27
2018-12-26T22:26:47.197Z,3.97
2018-12-26T22:29:15.611Z,4.80
2018-12-26T22:31:43.984Z,5.03
2018-12-26T22:34:12.228Z,3.70
2018-12-26T22:36:40.553Z,3.87
2018-12-26T22:39:08.891Z,3.93
2018-12-26T22:41:37.522Z,4.73
2018-12-26T22:44:05.856Z,3.93
2018-12-26T22:46:34.216Z,3.80
2018-12-26T22:49:02.618Z,2.67
2018-12-26T22:51:30.939Z,3.43
2018-12-26T22:53:59.255Z,3.17
2018-12-26T22:56:28.329Z,4.43
2018-12-26T22:58:56.872Z,4.17
2018-12-26T23:01:25.478Z,3.43
2018-12-26T23:03:53.729Z,3.50
2018-12-26T23:06:22.295Z,3.83
2018-12-26T23:08:50.952Z,3.30
2018-12-26T23:11:19.302Z,3.97
2018-12-26T23:13:47.955Z,3.33
2018-12-26T23:16:16.083Z,4.10
2018-12-26T23:18:44.400Z,3.80
2018-12-26T23:21:12.828Z,4.40
2018-12-26T23:23:41.328Z,3.33
2018-12-26T23:26:09.827Z,2.90
2018-12-26T23:28:38.203Z,3.60
2018-12-26T23:31:06.519Z,3.83
2018-12-26T23:33:36.330Z,14.33
2018-12-26T23:36:04.437Z,7.20
2018-12-26T23:38:32.760Z,4.47
2018-12-26T23:41:01.284Z,4.50
2018-12-26T23:43:29.755Z,4.03
2018-12-26T23:45:58.158Z,3.47
2018-12-26T23:48:26.687Z,4.50
2018-12-26T23:50:56.042Z,4.03
2018-12-26T23:53:24.373Z,3.97
2018-12-26T23:55:52.724Z,4.60
2018-12-26T23:58:22.172Z,3.80
